This is the latest recevied weather packets stored in our database for station/object CE1RLP-31. If no packets are shown the sender has not sent any weather packets the latest 10 day(s).
| Time | Temp. | Humidity | Pressure | Rain* | Wind** | Luminosity | Snow |
|---|---|---|---|---|---|---|---|
| 1778103469 | 13.33° C | 19% | 1100.1 hPa | - | - | - | - |
| 1778102569 | 13.33° C | 19% | 1099.9 hPa | - | - | - | - |
| 1778101669 | 13.89° C | 19% | 1100.1 hPa | - | - | - | - |
| 1778100769 | 13.89° C | 19% | 1100 hPa | - | - | - | - |
| 1778099869 | 13.89° C | 24% | 1100.1 hPa | - | - | - | - |
| 1778098969 | 14.44° C | 26% | 1100 hPa | - | - | - | - |
| 1778098069 | 14.44° C | 25% | 1100 hPa | - | - | - | - |
| 1778097169 | 15.56° C | 24% | 1099.9 hPa | - | - | - | - |
| 1778096269 | 16.11° C | 23% | 1100.1 hPa | - | - | - | - |
| 1778095369 | 10° C | 23% | 1093.2 hPa | - | - | - | - |
| 1778094469 | 16.67° C | 17% | 1100.1 hPa | - | - | - | - |
| 1778093568 | 17.22° C | 22% | 1100.1 hPa | - | - | - | - |
| 1778092668 | 17.78° C | 22% | 1100.2 hPa | - | - | - | - |
| 1778091768 | 17.78° C | 21% | 1100.3 hPa | - | - | - | - |
| 1778090868 | 18.33° C | 21% | 1100.4 hPa | - | - | - | - |
| 1778089968 | 17.78° C | 21% | 1100.5 hPa | - | - | - | - |
| 1778089068 | 18.33° C | 21% | 1100.6 hPa | - | - | - | - |
| 1778088168 | 18.89° C | 20% | 1100.6 hPa | - | - | - | - |
| 1778087268 | 18.33° C | 20% | 1100.5 hPa | - | - | - | - |
| 1778086368 | 17.22° C | 20% | 1100.8 hPa | - | - | - | - |
| 1778085468 | 17.22° C | 20% | 1100.8 hPa | - | - | - | - |
| 1778084567 | 17.22° C | 21% | 1100.9 hPa | - | - | - | - |
| 1778083667 | 17.22° C | 20% | 1101 hPa | - | - | - | - |
| 1778082769 | 16.67° C | 18% | 1101 hPa | - | - | - | - |
| 1778081868 | 16.67° C | 18% | 1101.1 hPa | - | - | - | - |
* Rain since midnight (hover to see other rain measurements)
** Current wind speed in m/s (hover to see current wind gust speed)